Latest Weather Observations for Mount Nowa Nowa

IDV60801

Issued at 3:52 pm EDT Monday 30 March 2020 (issued every 10 minutes, with the page automatically refreshed every 10 minutes)

About weather observations | Map of weather stations | Latest weather observations for VIC | Other Formats
Station Details ID: 084144 Name: MOUNT NOWA NOWA Lat: -37.69 Lon: 148.09 Height: 350.0 m
Data from the previous 72 hours. | See also: Recent months at Mount Nowa Nowa
Date/Time
EDT
Temp
°C
App
Temp
°C
Dew
Point
°C
Rel
Hum
%
Delta-T
°C
Wind Press
QNH
hPa
Press
MSL
hPa
Rain since
9am
mm
Dir  Spd
km/h
Gust
km/h
Spd
kts
Gust
kts
30/03:30pm 18.2 18.0 13.5 74 2.7 S 7 11 4 6 - - 0.0
30/03:00pm 18.5 18.4 13.8 74 2.7 S 7 15 4 8 - - 0.0
30/02:30pm 17.4 17.2 13.5 78 2.2 SSW 7 13 4 7 - - 0.0
30/02:00pm 17.9 17.7 13.6 76 2.5 SSW 7 13 4 7 - - 0.0
30/01:30pm 17.9 16.8 13.0 73 2.8 SSW 11 20 6 11 - - 0.0
30/01:00pm 18.0 17.1 12.5 70 3.1 S 9 19 5 10 - - 0.0
30/12:30pm 18.2 17.5 13.1 72 2.9 SSW 9 17 5 9 - - 0.0
30/12:00pm 17.8 17.8 14.3 80 2.0 S 7 19 4 10 - - 0.0
30/11:30am 17.7 18.0 14.6 82 1.8 S 6 13 3 7 - - 0.0
30/11:00am 18.4 19.4 15.3 82 1.8 SSW 4 9 2 5 - - 0.0
30/10:30am 17.9 18.2 14.4 80 2.0 WSW 6 9 3 5 - - 0.0
30/10:00am 17.2 18.3 14.5 84 1.6 WNW 2 4 1 2 - - 0.0
30/09:30am 16.4 17.0 14.2 87 1.3 NW 4 6 2 3 - - 0.0
30/09:00am 16.1 16.2 13.9 87 1.3 W 6 7 3 4 - - 3.4
30/08:30am 15.5 15.5 13.5 88 1.1 W 6 9 3 5 - - 3.4
30/08:00am 15.4 15.2 13.6 89 1.0 WSW 7 11 4 6 - - 3.4
30/07:30am 15.6 14.9 13.3 86 1.3 WSW 9 15 5 8 - - 3.4
30/07:00am 16.4 15.2 12.9 80 2.0 WSW 11 19 6 10 - - 3.4
30/06:30am 16.8 16.0 12.9 78 2.2 W 9 15 5 8 - - 3.4
30/06:00am 17.7 15.3 12.8 73 2.8 NNW 17 22 9 12 - - 3.4
30/05:30am 18.1 15.4 12.8 71 3.0 NNW 19 26 10 14 - - 3.4
30/05:00am 18.4 16.0 12.8 70 3.2 NNW 17 24 9 13 - - 3.4
30/04:30am 18.8 16.1 12.8 68 3.4 NNW 19 26 10 14 - - 3.4
30/04:00am 18.8 15.9 12.8 68 3.4 NNW 20 28 11 15 - - 3.4
30/03:30am 18.4 15.1 12.8 70 3.2 NW 22 30 12 16 - - 3.4
30/03:00am 18.4 15.1 12.8 70 3.2 NW 22 28 12 15 - - 3.4
30/02:30am 18.0 15.2 13.1 73 2.8 NNW 20 28 11 15 - - 3.4
30/02:00am 18.4 15.5 12.8 70 3.2 NNW 20 30 11 16 - - 3.4
30/01:30am 18.5 15.7 13.1 71 3.1 NNW 20 28 11 15 - - 3.4
30/01:00am 18.7 15.9 13.1 70 3.2 NNW 20 26 11 14 - - 3.4
30/12:30am 18.5 15.9 13.1 71 3.1 NNW 19 28 10 15 - - 3.4
30/12:00am 18.4 15.3 13.5 73 2.8 NNW 22 30 12 16 - - 3.4
 
Date/Time
EDT
Temp
°C
App
Temp
°C
Dew
Point
°C
Rel
Hum
%
Delta-T
°C
Wind Press
QNH
hPa
Press
MSL
hPa
Rain since
9am
mm
Dir  Spd
km/h
Gust
km/h
Spd
kts
Gust
kts
29/11:30pm 18.4 15.8 13.9 75 2.6 N 20 30 11 16 - - 3.4
29/11:00pm 17.1 15.5 14.9 87 1.3 N 17 24 9 13 - - 3.4
29/10:30pm 17.2 17.8 15.2 88 1.2 NE 6 9 3 5 - - 3.4
29/10:00pm 17.3 17.6 15.1 87 1.3 ENE 7 13 4 7 - - 3.4
29/09:30pm 17.4 17.7 15.0 86 1.4 E 7 11 4 6 - - 3.4
29/09:00pm 17.5 17.8 15.0 85 1.5 E 7 9 4 5 - - 3.4
29/08:30pm 17.7 18.0 14.6 82 1.8 ESE 6 7 3 4 - - 3.4
29/08:00pm 17.5 17.8 15.0 85 1.5 S 7 9 4 5 - - 3.2
29/07:30pm 17.3 16.6 15.5 89 1.1 WSW 13 20 7 11 - - 2.8
29/07:00pm 17.9 16.9 14.6 81 1.9 WSW 13 20 7 11 - - 2.6
29/06:30pm 19.4 19.4 14.2 72 3.1 WNW 7 13 4 7 - - 1.2
29/06:00pm 22.9 19.4 12.2 51 6.2 NW 22 41 12 22 - - 0.0
29/05:30pm 24.8 20.8 10.3 40 8.2 NW 22 43 12 23 - - 0.0
29/05:00pm 25.7 21.9 9.9 37 8.9 NW 20 32 11 17 - - 0.0
29/04:30pm 26.4 22.8 9.7 35 9.4 NW 19 35 10 19 - - 0.0
29/04:00pm 27.1 24.1 10.8 36 9.4 NNW 17 30 9 16 - - 0.0
29/03:30pm 25.8 21.3 10.0 37 8.9 NW 24 41 13 22 - - 0.0
29/03:00pm 25.3 21.3 10.4 39 8.4 NNW 22 39 12 21 - - 0.0
29/02:30pm 25.8 22.3 10.8 39 8.6 NNW 20 44 11 24 - - 0.0
29/02:01pm 24.4 18.7 9.9 40 8.1 NNW 30 50 16 27 - - 0.0
29/02:00pm 24.5 19.2 10.0 40 8.1 NW 28 46 15 25 - - 0.0
29/01:47pm 24.2 19.0 10.1 41 7.9 NW 28 48 15 26 - - 0.0
29/01:30pm 24.7 19.9 10.2 40 8.1 NNW 26 44 14 24 - - 0.0
29/01:17pm 24.4 19.2 10.3 41 7.9 NW 28 54 15 29 - - 0.0
29/01:00pm 24.2 21.0 11.2 44 7.4 NW 19 30 10 16 - - 0.0
29/12:30pm 22.6 17.5 10.7 47 6.7 NNW 28 46 15 25 - - 0.0
29/12:02pm 22.7 17.7 10.8 47 6.7 NNW 28 48 15 26 - - 0.0
29/12:00pm 22.7 17.4 11.1 48 6.5 NNW 30 48 16 26 - - 0.0
29/11:30am 22.0 17.6 10.5 48 6.4 NNW 24 41 13 22 - - 0.0
29/11:00am 21.9 18.5 10.7 49 6.3 NNW 19 35 10 19 - - 0.0
29/10:30am 21.0 18.2 9.9 49 6.1 N 15 28 8 15 - - 0.0
29/10:00am 20.7 16.8 9.6 49 6.0 NNW 20 37 11 20 - - 0.0
29/09:30am 19.7 15.9 9.0 50 5.7 NNW 19 32 10 17 - - 0.0
29/09:00am 18.4 13.5 8.4 52 5.2 N 24 35 13 19 - - 0.0
29/08:30am 17.6 12.6 7.9 53 5.0 N 24 35 13 19 - - 0.0
29/08:00am 17.4 11.9 7.7 53 5.0 N 26 37 14 20 - - 0.0
29/07:30am 17.0 11.5 7.4 53 4.9 N 26 37 14 20 - - 0.0
29/07:00am 16.6 11.4 7.3 54 4.7 N 24 35 13 19 - - 0.0
29/06:30am 16.4 11.9 7.1 54 4.7 N 20 30 11 16 - - 0.0
29/06:00am 16.7 12.4 7.1 53 4.9 N 19 28 10 15 - - 0.0
29/05:30am 16.7 12.2 7.1 53 4.9 N 20 32 11 17 - - 0.0
29/05:00am 16.8 12.0 7.2 53 4.9 N 22 33 12 18 - - 0.0
29/04:30am 17.6 12.4 7.4 51 5.2 N 24 37 13 20 - - 0.0
29/04:00am 17.9 12.7 7.3 50 5.4 N 24 35 13 19 - - 0.0
29/03:30am 17.9 12.3 7.3 50 5.4 N 26 43 14 23 - - 0.0
29/03:00am 18.2 12.7 7.6 50 5.5 N 26 35 14 19 - - 0.0
29/02:30am 18.0 12.5 7.4 50 5.4 N 26 35 14 19 - - 0.0
29/02:00am 18.9 13.9 8.0 49 5.7 NNW 24 37 13 20 - - 0.0
29/01:30am 19.4 14.0 8.1 48 5.9 NNW 26 37 14 20 - - 0.0
29/01:00am 19.5 14.5 7.9 47 6.1 NNW 24 35 13 19 - - 0.0
29/12:30am 19.3 14.1 7.4 46 6.2 N 24 33 13 18 - - 0.0
29/12:00am 19.1 13.9 7.2 46 6.1 N 24 35 13 19 - - 0.0
 
Date/Time
EDT
Temp
°C
App
Temp
°C
Dew
Point
°C
Rel
Hum
%
Delta-T
°C
Wind Press
QNH
hPa
Press
MSL
hPa
Rain since
9am
mm
Dir  Spd
km/h
Gust
km/h
Spd
kts
Gust
kts
28/11:30pm 19.1 14.1 8.1 49 5.8 N 24 35 13 19 - - 0.0
28/11:00pm 18.9 15.7 8.3 50 5.6 NNE 15 28 8 15 - - 0.0
28/10:30pm 20.0 18.3 8.4 47 6.1 NE 7 11 4 6 - - 0.0
28/10:00pm 19.3 16.9 8.6 50 5.7 ENE 11 15 6 8 - - 0.0
28/09:30pm 19.3 17.0 8.9 51 5.5 ENE 11 17 6 9 - - 0.0
28/09:00pm 18.7 16.6 8.4 51 5.4 E 9 11 5 6 - - 0.0
28/08:30pm 18.9 16.8 8.3 50 5.6 ESE 9 11 5 6 - - 0.0
28/08:00pm 19.0 16.9 8.4 50 5.6 ESE 9 9 5 5 - - 0.0
28/07:30pm 19.3 17.7 8.6 50 5.7 ESE 7 13 4 7 - - 0.0
28/07:00pm 20.2 18.6 8.8 48 6.1 ESE 7 9 4 5 - - 0.0
28/06:30pm 21.3 20.0 9.2 46 6.6 ESE 6 9 3 5 - - 0.0
28/06:00pm 21.8 20.4 9.0 44 6.9 ESE 6 11 3 6 - - 0.0
28/05:30pm 22.6 21.2 9.4 43 7.2 ESE 7 15 4 8 - - 0.0
28/05:00pm 24.1 23.0 10.0 41 7.9 ESE 6 11 3 6 - - 0.0
28/04:30pm 25.0 23.7 10.1 39 8.4 ESE 7 13 4 7 - - 0.0
28/04:00pm 25.5 24.3 9.7 37 8.8 ESE 6 15 3 8 - - 0.0
28/03:30pm 25.2 24.3 10.6 40 8.3 ESE 6 11 3 6 - - 0.0
28/03:00pm 25.1 24.6 10.9 41 8.1 ESE 4 9 2 5 - - 0.0
28/02:30pm 23.8 23.4 11.2 45 7.2 SE 4 15 2 8 - - 0.0
28/02:00pm 23.5 22.5 10.9 45 7.1 S 7 11 4 6 - - 0.0
28/01:30pm 23.0 21.7 9.8 43 7.3 S 7 11 4 6 - - 0.0
28/01:00pm 24.0 22.5 8.4 37 8.5 NW 6 7 3 4 - - 0.0
28/12:30pm 24.2 23.5 10.1 41 7.9 W 4 7 2 4 - - 0.0
28/12:00pm 22.3 21.6 10.1 46 6.8 WNW 4 7 2 4 - - 0.0
28/11:30am 21.9 21.1 9.8 46 6.6 NW 4 9 2 5 - - 0.0
28/11:00am 20.2 19.0 10.3 53 5.4 NNW 7 13 4 7 - - 0.0
28/10:30am 18.7 16.2 9.8 56 4.8 N 13 19 7 10 - - 0.0
28/10:00am 17.9 15.3 9.5 58 4.5 N 13 20 7 11 - - 0.0
28/09:30am 17.1 13.4 9.3 60 4.1 N 19 28 10 15 - - 0.0
28/09:00am 16.6 12.7 9.3 62 3.9 N 20 28 11 15 - - 0.0
28/08:30am 16.4 12.4 9.1 62 3.8 N 20 28 11 15 - - 0.0
28/08:00am 16.1 12.1 9.1 63 3.7 N 20 30 11 16 - - 0.0
28/07:30am 15.5 11.6 9.4 67 3.2 N 20 28 11 15 - - 0.0
28/07:00am 15.4 11.5 9.5 68 3.1 N 20 26 11 14 - - 0.0
28/06:30am 15.4 11.6 9.7 69 3.0 N 20 28 11 15 - - 0.0
28/06:00am 15.1 11.8 9.5 69 2.9 N 17 24 9 13 - - 0.0
28/05:30am 15.3 11.7 9.9 70 2.9 N 19 28 10 15 - - 0.0
28/05:00am 15.5 12.0 10.1 70 2.9 N 19 24 10 13 - - 0.0
28/04:30am 15.6 12.5 10.2 70 2.9 N 17 24 9 13 - - 0.0
28/04:00am 15.8 13.1 10.3 70 2.9 NNE 15 24 8 13 - - 0.0
28/03:30am 15.7 12.0 10.2 70 2.9 N 20 28 11 15 - - 0.0
28/03:00am 16.1 12.7 10.4 69 3.1 N 19 32 10 17 - - 0.0
28/02:30am 16.6 14.2 10.2 66 3.4 NNE 13 26 7 14 - - 0.0
28/02:00am 17.0 15.4 10.1 64 3.7 NNE 9 19 5 10 - - 0.0
28/01:30am 17.2 15.4 9.6 61 4.1 NNE 9 22 5 12 - - 0.0
28/01:00am 17.3 16.0 9.2 59 4.3 NNE 6 15 3 8 - - 0.0
28/12:30am 17.2 15.8 8.9 58 4.4 NE 6 11 3 6 - - 0.0
28/12:00am 18.1 16.8 9.2 56 4.7 ENE 6 11 3 6 - - 0.0
 
Date/Time
EDT
Temp
°C
App
Temp
°C
Dew
Point
°C
Rel
Hum
%
Delta-T
°C
Wind Press
QNH
hPa
Press
MSL
hPa
Rain since
9am
mm
Dir  Spd
km/h
Gust
km/h
Spd
kts
Gust
kts
27/11:30pm 18.4 17.0 9.7 57 4.7 ENE 7 13 4 7 - - 0.0
27/11:00pm 18.6 16.5 9.9 57 4.7 ENE 11 19 6 10 - - 0.0
27/10:30pm 18.5 16.4 8.2 51 5.4 ENE 9 17 5 9 - - 0.0
27/10:00pm 17.9 15.3 7.9 52 5.2 E 11 19 6 10 - - 0.0
27/09:30pm 17.4 14.9 8.3 55 4.7 E 11 15 6 8 - - 0.0
27/09:00pm 17.2 14.8 8.6 57 4.5 E 11 17 6 9 - - 0.0
27/08:30pm 16.9 14.5 8.6 58 4.3 E 11 15 6 8 - - 0.0
27/08:00pm 16.9 15.0 9.1 60 4.1 E 9 13 5 7 - - 0.0
27/07:30pm 17.4 15.8 8.8 57 4.5 ESE 7 11 4 6 - - 0.0
27/07:00pm 18.3 17.0 9.1 55 4.9 ESE 6 9 3 5 - - 0.0
27/06:30pm 19.3 18.0 9.2 52 5.4 ESE 6 11 3 6 - - 0.0
27/06:00pm 20.3 19.1 9.5 50 5.9 ESE 6 9 3 5 - - 0.0
27/05:30pm 21.1 19.9 9.4 47 6.4 ESE 6 11 3 6 - - 0.0
27/05:00pm 21.4 19.9 9.3 46 6.6 SE 7 15 4 8 - - 0.0
27/04:30pm 21.7 19.6 9.6 46 6.6 SSE 11 19 6 10 - - 0.0
27/04:00pm 22.1 20.7 9.6 45 6.9 SE 7 19 4 10 - - 0.0

Other formats

Comma delimited format used in spreadsheet applications
http://www.bom.gov.au/fwo/IDV60801/IDV60801.94930.axf

JavaScript Object Notation format (JSON) in row-major order
http://www.bom.gov.au/fwo/IDV60801/IDV60801.94930.json

Data quality

Most of these data are generated automatically and are frequently updated. Quality checks on data are not normally performed. It is possible for incorrect values to appear. Refer to information at About Latest Weather Observations and please check the disclaimer before using these data.